Time;durP1;ratioP1;P1;durP2;ratioP2;P2;SDS_P1;SDS_P2;PMS_P1;PMS_P2;Temp;Humidity;BMP_temperature;BMP_pressure;BME280_temperature;BME280_humidity;BME280_pressure;Samples;Min_cycle;Max_cycle;Signal;HPM_P1;HPM_P2
2023/12/12 00:00:35;;;;;;;0.20;0.20;;;7.10;99.90;;;;;;5007490;28;20624;-61
2023/12/12 00:03:02;;;;;;;0.10;0.10;;;7.00;99.90;;;;;;5004211;28;20236;-60
2023/12/12 00:05:29;;;;;;;0.20;0.20;;;7.00;99.90;;;;;;5010262;28;20200;-60
2023/12/12 00:07:58;;;;;;;1.07;0.27;;;6.90;99.90;;;;;;5006114;28;20219;-61
2023/12/12 00:10:25;;;;;;;0.20;0.20;;;6.80;99.90;;;;;;5010348;28;20208;-60
2023/12/12 00:12:53;;;;;;;0.40;0.40;;;6.90;99.90;;;;;;5008657;28;20200;-60
2023/12/12 00:15:20;;;;;;;0.63;0.30;;;6.80;99.90;;;;;;5019029;28;20205;-60
2023/12/12 00:17:47;;;;;;;0.30;0.30;;;6.80;99.90;;;;;;5009196;28;20295;-60
2023/12/12 00:20:14;;;;;;;0.23;0.23;;;6.70;99.90;;;;;;5010143;28;20203;-60
2023/12/12 00:22:41;;;;;;;0.40;0.40;;;6.70;99.90;;;;;;5008492;28;20252;-60
2023/12/12 00:25:09;;;;;;;0.60;0.40;;;6.70;99.90;;;;;;5010969;28;20201;-60
2023/12/12 00:27:36;;;;;;;0.40;0.40;;;6.70;99.90;;;;;;5008349;28;20220;-60
2023/12/12 00:30:03;;;;;;;1.03;0.50;;;6.70;99.90;;;;;;5006041;28;20228;-60
2023/12/12 00:32:30;;;;;;;2.80;0.30;;;6.80;99.90;;;;;;5006841;28;20256;-60
2023/12/12 00:34:57;;;;;;;0.27;0.20;;;6.80;99.90;;;;;;5009862;28;20621;-60
2023/12/12 00:37:24;;;;;;;0.20;0.20;;;6.80;99.90;;;;;;5011167;28;20215;-60
2023/12/12 00:39:51;;;;;;;0.27;0.27;;;6.80;99.90;;;;;;5010370;28;20207;-61
2023/12/12 00:42:19;;;;;;;0.23;0.20;;;6.80;99.90;;;;;;5010641;28;20264;-60
2023/12/12 00:44:46;;;;;;;1.50;0.50;;;6.80;99.90;;;;;;5009337;28;20256;-60
2023/12/12 00:47:13;;;;;;;0.60;0.60;;;6.80;99.90;;;;;;5011195;28;20200;-60
2023/12/12 00:49:40;;;;;;;0.30;0.30;;;6.90;99.90;;;;;;5015595;28;20250;-61
2023/12/12 00:52:08;;;;;;;0.40;0.40;;;6.80;99.90;;;;;;5010863;28;20252;-60
2023/12/12 00:54:35;;;;;;;0.30;0.30;;;6.80;99.90;;;;;;5015087;28;20281;-60
2023/12/12 00:57:02;;;;;;;0.30;0.30;;;6.80;99.90;;;;;;5016034;28;20204;-60
2023/12/12 00:59:30;;;;;;;0.87;0.30;;;6.70;99.90;;;;;;5015760;28;20226;-61
2023/12/12 01:01:57;;;;;;;0.40;0.30;;;6.70;99.90;;;;;;5019127;28;20697;-61
2023/12/12 01:04:24;;;;;;;0.50;0.40;;;6.70;99.90;;;;;;5015954;28;20218;-60
2023/12/12 01:06:52;;;;;;;0.30;0.30;;;6.80;99.90;;;;;;5015993;28;20240;-60
2023/12/12 01:09:19;;;;;;;0.37;0.37;;;6.80;99.90;;;;;;5015562;28;20227;-60
2023/12/12 01:11:46;;;;;;;0.20;0.20;;;6.80;99.90;;;;;;5015897;28;20734;-60
2023/12/12 01:14:13;;;;;;;1.03;0.30;;;6.80;99.90;;;;;;5016113;28;20200;-60
2023/12/12 01:16:42;;;;;;;0.20;0.20;;;6.90;99.90;;;;;;5019314;28;20632;-60
2023/12/12 01:19:08;;;;;;;1.13;0.33;;;6.70;99.90;;;;;;5015177;28;20781;-60
2023/12/12 01:21:36;;;;;;;0.50;0.50;;;6.70;99.90;;;;;;5015571;28;20210;-60
2023/12/12 01:24:03;;;;;;;1.07;0.53;;;6.70;99.90;;;;;;5015512;28;20225;-60
2023/12/12 01:26:30;;;;;;;0.70;0.40;;;6.70;99.90;;;;;;5014355;28;20608;-60
2023/12/12 01:28:57;;;;;;;1.03;0.40;;;6.80;99.90;;;;;;5014956;28;20225;-60
2023/12/12 01:31:24;;;;;;;0.77;0.63;;;6.80;99.90;;;;;;5015865;28;20680;-60
2023/12/12 01:33:52;;;;;;;0.57;0.57;;;6.80;99.90;;;;;;5015649;28;20252;-60
2023/12/12 01:36:19;;;;;;;0.50;0.40;;;6.80;99.90;;;;;;5015484;28;20577;-60
2023/12/12 01:38:46;;;;;;;0.63;0.63;;;6.80;99.90;;;;;;5014100;28;20786;-60
2023/12/12 01:41:13;;;;;;;0.30;0.30;;;6.80;99.90;;;;;;5009126;28;20669;-61
2023/12/12 01:43:40;;;;;;;0.20;0.20;;;6.80;99.90;;;;;;5015603;28;20220;-60
2023/12/12 01:46:09;;;;;;;0.20;0.20;;;6.80;99.90;;;;;;5033116;28;20258;-60
2023/12/12 01:48:36;;;;;;;0.10;0.10;;;6.80;99.90;;;;;;5034441;28;20225;-61
2023/12/12 01:51:06;;;;;;;0.10;0.10;;;6.80;99.90;;;;;;5034058;28;20302;-60
2023/12/12 01:53:35;;;;;;;0.53;0.20;;;6.70;99.90;;;;;;5013892;28;20268;-61
2023/12/12 01:56:03;;;;;;;0.10;0.10;;;6.70;99.90;;;;;;5015004;28;20261;-60
2023/12/12 01:58:31;;;;;;;0.13;0.10;;;6.60;99.90;;;;;;5014753;28;20590;-60
2023/12/12 02:00:58;;;;;;;1.00;0.10;;;6.60;99.90;;;;;;5014352;28;20265;-60
2023/12/12 02:03:27;;;;;;;1.80;0.73;;;6.50;99.90;;;;;;5013799;28;20569;-60
2023/12/12 02:05:58;;;;;;;0.77;0.30;;;6.50;99.90;;;;;;5013393;28;20210;-60
2023/12/12 02:08:26;;;;;;;0.30;0.20;;;6.50;99.90;;;;;;5013615;28;20220;-60
2023/12/12 02:10:53;;;;;;;0.30;0.30;;;6.40;99.90;;;;;;5014829;28;20742;-60
2023/12/12 02:13:20;;;;;;;0.20;0.20;;;6.40;99.90;;;;;;5014895;28;20205;-60
2023/12/12 02:15:48;;;;;;;1.70;0.40;;;6.50;99.90;;;;;;5013809;28;20204;-60
2023/12/12 02:18:15;;;;;;;0.10;0.10;;;6.40;99.90;;;;;;5013515;28;20228;-61
2023/12/12 02:20:42;;;;;;;0.10;0.10;;;6.40;99.90;;;;;;5014406;28;20203;-61
2023/12/12 02:23:10;;;;;;;0.20;0.20;;;6.40;99.90;;;;;;5014564;28;20224;-61
2023/12/12 02:25:38;;;;;;;0.20;0.20;;;6.40;99.90;;;;;;5014694;28;20681;-60
2023/12/12 02:28:06;;;;;;;1.23;0.13;;;6.50;99.90;;;;;;5014212;28;20220;-60
2023/12/12 02:30:33;;;;;;;0.10;0.10;;;6.50;99.90;;;;;;5013383;28;20204;-60
2023/12/12 02:33:00;;;;;;;0.20;0.20;;;6.40;99.90;;;;;;5014597;28;20281;-60
2023/12/12 02:35:29;;;;;;;0.60;0.10;;;6.40;99.90;;;;;;5014164;28;20751;-60
2023/12/12 02:37:55;;;;;;;0.10;0.10;;;6.50;99.90;;;;;;5014037;28;20293;-60
2023/12/12 02:40:24;;;;;;;0.47;0.47;;;6.60;99.90;;;;;;5013273;28;20259;-60
2023/12/12 02:42:51;;;;;;;3.03;0.60;;;6.60;99.90;;;;;;5013191;28;20210;-60
2023/12/12 02:45:18;;;;;;;0.50;0.50;;;6.60;99.90;;;;;;5014145;28;20225;-60
2023/12/12 02:47:45;;;;;;;0.40;0.40;;;6.70;99.90;;;;;;5013610;28;20225;-60
2023/12/12 02:50:12;;;;;;;0.60;0.40;;;6.70;99.90;;;;;;5012671;28;20268;-60
2023/12/12 02:52:39;;;;;;;0.83;0.30;;;6.70;99.90;;;;;;5015617;28;20254;-60
2023/12/12 02:55:06;;;;;;;0.50;0.50;;;6.80;99.90;;;;;;5022420;28;20258;-60
2023/12/12 02:57:35;;;;;;;0.93;0.93;;;6.80;99.90;;;;;;5013415;28;20204;-61
2023/12/12 03:00:02;;;;;;;0.13;0.10;;;6.90;99.90;;;;;;5014095;28;20341;-61
2023/12/12 03:02:29;;;;;;;0.20;0.20;;;7.00;99.90;;;;;;5027001;28;20195;-60
2023/12/12 03:04:55;;;;;;;0.00;0.00;;;7.00;99.90;;;;;;5033400;28;20646;-61
2023/12/12 03:07:22;;;;;;;0.00;0.00;;;7.10;99.90;;;;;;5024463;28;20492;-60
2023/12/12 03:09:50;;;;;;;0.00;0.00;;;7.10;99.90;;;;;;5014490;28;20256;-60
2023/12/12 03:12:17;;;;;;;0.00;0.00;;;7.10;99.90;;;;;;5013746;28;20298;-60
2023/12/12 03:14:45;;;;;;;0.43;0.10;;;7.10;99.90;;;;;;5013573;28;20260;-60
2023/12/12 03:17:12;;;;;;;0.10;0.10;;;7.00;99.90;;;;;;5012696;28;20205;-60
2023/12/12 03:19:39;;;;;;;1.70;0.37;;;6.90;99.90;;;;;;5011905;28;20223;-60
2023/12/12 03:22:06;;;;;;;0.20;0.20;;;6.90;99.90;;;;;;5012906;28;20197;-60
2023/12/12 03:24:33;;;;;;;0.10;0.10;;;6.90;99.90;;;;;;5012887;28;20774;-60
2023/12/12 03:27:00;;;;;;;0.20;0.00;;;6.80;99.90;;;;;;5032069;28;20196;-60
2023/12/12 03:29:27;;;;;;;0.30;0.20;;;6.80;99.90;;;;;;5032329;28;20354;-60
2023/12/12 03:31:55;;;;;;;0.10;0.10;;;6.90;99.90;;;;;;5032696;28;20209;-60
2023/12/12 03:34:22;;;;;;;0.00;0.00;;;6.90;99.90;;;;;;5013345;28;20198;-60
2023/12/12 03:36:52;;;;;;;0.80;0.40;;;6.90;99.90;;;;;;5012719;28;20751;-60
2023/12/12 03:39:19;;;;;;;0.10;0.10;;;7.00;99.90;;;;;;5011103;28;20264;-60
2023/12/12 03:41:49;;;;;;;0.20;0.20;;;7.00;99.90;;;;;;5013278;28;20296;-60
2023/12/12 03:44:16;;;;;;;0.13;0.13;;;7.00;99.90;;;;;;5013187;28;20227;-60
2023/12/12 03:46:42;;;;;;;0.83;0.10;;;7.00;99.90;;;;;;5011608;28;20204;-60
2023/12/12 03:49:11;;;;;;;0.03;0.03;;;7.00;99.90;;;;;;5011808;28;20780;-61
2023/12/12 03:51:38;;;;;;;0.20;0.17;;;7.00;99.90;;;;;;5012505;28;20327;-60
2023/12/12 03:54:05;;;;;;;0.20;0.10;;;7.00;99.90;;;;;;5012832;28;20210;-60
2023/12/12 03:56:31;;;;;;;0.20;0.20;;;6.90;99.90;;;;;;5012948;28;20204;-60
2023/12/12 03:58:59;;;;;;;0.93;0.40;;;6.90;99.90;;;;;;5011320;28;20253;-60
2023/12/12 04:01:26;;;;;;;0.30;0.20;;;6.90;99.90;;;;;;5018623;28;20621;-60
2023/12/12 04:03:55;;;;;;;0.23;0.10;;;6.80;99.90;;;;;;5012541;28;20202;-60
2023/12/12 04:06:23;;;;;;;0.20;0.20;;;6.70;99.90;;;;;;5012546;28;20205;-60
2023/12/12 04:08:50;;;;;;;0.20;0.20;;;6.70;99.90;;;;;;5011005;28;20767;-60
2023/12/12 04:11:17;;;;;;;0.10;0.10;;;6.70;99.90;;;;;;5010805;28;20618;-60
2023/12/12 04:13:44;;;;;;;1.07;0.20;;;6.70;99.90;;;;;;5016988;28;20200;-60
2023/12/12 04:16:11;;;;;;;1.57;0.37;;;6.60;99.90;;;;;;5031966;28;20580;-60
2023/12/12 04:18:38;;;;;;;1.17;0.30;;;6.60;99.90;;;;;;5022087;28;20220;-60
2023/12/12 04:21:06;;;;;;;0.30;0.27;;;6.60;99.90;;;;;;5004616;28;20288;-61
2023/12/12 04:23:37;;;;;;;2.10;0.30;;;6.60;99.90;;;;;;5010270;28;20197;-60
2023/12/12 04:26:05;;;;;;;0.20;0.20;;;6.70;99.90;;;;;;5010472;28;20696;-61
2023/12/12 04:28:32;;;;;;;0.20;0.20;;;6.70;99.90;;;;;;5011136;28;20221;-61
2023/12/12 04:30:59;;;;;;;0.93;0.50;;;6.70;99.90;;;;;;5014104;28;20209;-60
2023/12/12 04:33:26;;;;;;;0.97;0.60;;;6.70;99.90;;;;;;5010906;28;20205;-60
2023/12/12 04:35:53;;;;;;;0.20;0.20;;;6.60;99.90;;;;;;5011772;28;20769;-61
2023/12/12 04:38:19;;;;;;;0.30;0.30;;;6.70;99.90;;;;;;5011174;28;20264;-60
2023/12/12 04:40:48;;;;;;;0.67;0.20;;;6.60;99.90;;;;;;5011691;28;20251;-60
2023/12/12 04:43:15;;;;;;;0.10;0.10;;;6.70;99.90;;;;;;5014912;28;20718;-60
2023/12/12 04:45:42;;;;;;;0.20;0.20;;;6.70;99.90;;;;;;5015710;28;20223;-60
2023/12/12 04:48:09;;;;;;;0.30;0.30;;;6.80;99.90;;;;;;5010502;28;20224;-61
2023/12/12 04:50:36;;;;;;;0.27;0.20;;;6.70;99.90;;;;;;5011330;28;20725;-60
2023/12/12 04:53:03;;;;;;;0.70;0.30;;;6.70;99.90;;;;;;5010407;28;20661;-60
2023/12/12 04:55:30;;;;;;;0.33;0.20;;;6.70;99.90;;;;;;5011194;28;20193;-60
2023/12/12 04:57:58;;;;;;;0.20;0.20;;;6.70;99.90;;;;;;5010832;28;20708;-60
2023/12/12 05:00:25;;;;;;;0.40;0.20;;;6.70;99.90;;;;;;5011475;28;20687;-60
2023/12/12 05:02:52;;;;;;;0.50;0.20;;;6.70;99.90;;;;;;5011380;28;20264;-62
2023/12/12 05:05:19;;;;;;;1.23;0.17;;;6.80;99.90;;;;;;5009821;28;20263;-60
2023/12/12 05:07:46;;;;;;;0.63;0.20;;;6.80;99.90;;;;;;5010605;28;20225;-61
2023/12/12 05:10:13;;;;;;;0.20;0.20;;;6.90;99.90;;;;;;5011386;28;20197;-60
2023/12/12 05:12:40;;;;;;;0.30;0.30;;;6.90;99.90;;;;;;5011608;28;20260;-60
2023/12/12 05:15:10;;;;;;;1.00;0.30;;;6.90;99.90;;;;;;5011307;28;20747;-61
2023/12/12 05:17:37;;;;;;;0.10;0.10;;;6.90;99.90;;;;;;5010829;28;20225;-60
2023/12/12 05:20:09;;;;;;;0.10;0.10;;;6.90;99.90;;;;;;5002362;28;20213;-61
2023/12/12 05:22:36;;;;;;;1.37;0.40;;;6.80;99.90;;;;;;5006577;28;20209;-61
2023/12/12 05:25:05;;;;;;;2.47;0.50;;;6.80;99.90;;;;;;5011055;28;20263;-61
2023/12/12 05:27:32;;;;;;;0.30;0.30;;;6.80;99.90;;;;;;5010858;28;20283;-60
2023/12/12 05:29:59;;;;;;;0.47;0.30;;;6.80;99.90;;;;;;5011006;28;20553;-61
2023/12/12 05:32:27;;;;;;;1.07;0.30;;;6.80;99.90;;;;;;5011029;28;20260;-60
2023/12/12 05:34:54;;;;;;;0.23;0.20;;;6.70;99.90;;;;;;5011025;28;20776;-61
2023/12/12 05:37:21;;;;;;;0.70;0.30;;;6.80;99.90;;;;;;5005556;28;20210;-60
2023/12/12 05:39:49;;;;;;;0.30;0.30;;;6.80;99.90;;;;;;5009355;28;20205;-60
2023/12/12 05:42:16;;;;;;;0.47;0.47;;;6.80;99.90;;;;;;5014723;28;20212;-60
2023/12/12 05:44:43;;;;;;;0.63;0.30;;;6.80;99.90;;;;;;5014847;28;20268;-60
2023/12/12 05:47:10;;;;;;;0.40;0.40;;;6.70;99.90;;;;;;5014213;28;20197;-60
2023/12/12 05:49:39;;;;;;;0.40;0.20;;;6.70;99.90;;;;;;5014768;28;20221;-60
2023/12/12 05:52:07;;;;;;;1.10;0.30;;;6.70;99.90;;;;;;5013913;28;20689;-60
2023/12/12 05:54:33;;;;;;;1.33;0.53;;;6.70;99.90;;;;;;5014741;28;20280;-60
2023/12/12 05:57:00;;;;;;;2.43;0.30;;;6.60;99.90;;;;;;5014400;28;20267;-61
2023/12/12 05:59:27;;;;;;;0.10;0.10;;;6.70;99.90;;;;;;5013866;28;20224;-60
2023/12/12 06:01:54;;;;;;;1.00;0.20;;;6.70;99.90;;;;;;5014628;28;20251;-60
2023/12/12 06:04:21;;;;;;;0.30;0.30;;;6.60;99.90;;;;;;5014400;28;20201;-61
2023/12/12 06:06:53;;;;;;;1.50;0.40;;;6.60;99.90;;;;;;5005378;28;20202;-61
2023/12/12 06:09:20;;;;;;;0.60;0.60;;;6.60;99.90;;;;;;5011317;28;20225;-60
2023/12/12 06:11:50;;;;;;;2.07;1.40;;;6.70;99.90;;;;;;5011603;28;20260;-61
2023/12/12 06:14:17;;;;;;;3.30;1.47;;;6.70;99.90;;;;;;5014740;28;20209;-61
2023/12/12 06:16:47;;;;;;;1.90;1.70;;;6.70;99.90;;;;;;5012975;28;20193;-61
2023/12/12 06:19:14;;;;;;;3.60;3.33;;;6.60;99.90;;;;;;5004703;28;20279;-61
2023/12/12 06:21:41;;;;;;;2.30;2.20;;;6.60;99.90;;;;;;5014116;28;20258;-60
2023/12/12 06:24:09;;;;;;;3.87;2.50;;;6.70;99.90;;;;;;5013880;28;20234;-60
2023/12/12 06:26:37;;;;;;;1.90;1.80;;;6.70;99.90;;;;;;5010818;28;20223;-61
2023/12/12 06:29:07;;;;;;;0.50;0.50;;;6.70;99.90;;;;;;5013990;28;20304;-60
2023/12/12 06:31:34;;;;;;;0.40;0.40;;;6.60;99.90;;;;;;5013341;28;20215;-60
2023/12/12 06:34:01;;;;;;;3.70;1.00;;;6.60;99.90;;;;;;5013929;28;20198;-60
2023/12/12 06:36:28;;;;;;;2.20;0.80;;;6.60;99.90;;;;;;5013666;28;20246;-60
2023/12/12 06:38:55;;;;;;;0.70;0.60;;;6.60;99.90;;;;;;5013113;28;20220;-60
2023/12/12 06:41:23;;;;;;;0.80;0.60;;;6.60;99.90;;;;;;5013714;28;20208;-61
2023/12/12 06:43:51;;;;;;;1.00;0.67;;;6.50;99.90;;;;;;5013546;28;20677;-60
2023/12/12 06:46:19;;;;;;;0.70;0.70;;;6.60;99.90;;;;;;5014067;28;20425;-62
2023/12/12 06:48:46;;;;;;;1.23;0.60;;;6.50;99.90;;;;;;5014029;28;20230;-61
2023/12/12 06:51:13;;;;;;;0.73;0.73;;;6.50;99.90;;;;;;5012578;28;20792;-60
2023/12/12 06:53:40;;;;;;;1.17;0.90;;;6.60;99.90;;;;;;5011673;28;20206;-61
2023/12/12 06:56:08;;;;;;;3.07;2.50;;;6.60;99.90;;;;;;5013407;28;20572;-60
2023/12/12 06:58:36;;;;;;;2.70;1.80;;;6.60;99.90;;;;;;5013081;28;20312;-60
2023/12/12 07:01:03;;;;;;;0.70;0.70;;;6.60;99.90;;;;;;5013223;28;20252;-60
2023/12/12 07:03:30;;;;;;;0.70;0.70;;;6.60;99.90;;;;;;5013818;28;20201;-60
2023/12/12 07:05:57;;;;;;;1.20;0.90;;;6.60;99.90;;;;;;5012658;28;20223;-61
2023/12/12 07:08:24;;;;;;;0.80;0.80;;;6.60;99.90;;;;;;5012686;28;20283;-61
2023/12/12 07:10:51;;;;;;;1.50;1.07;;;6.70;99.90;;;;;;5012841;28;20201;-61
2023/12/12 07:13:18;;;;;;;3.30;0.60;;;6.70;99.90;;;;;;5012954;28;20202;-61
2023/12/12 07:15:47;;;;;;;0.97;0.50;;;6.60;99.90;;;;;;5012952;28;20653;-61
2023/12/12 07:18:14;;;;;;;0.60;0.60;;;6.70;99.90;;;;;;5012387;28;20268;-60
2023/12/12 07:20:42;;;;;;;0.53;0.50;;;6.60;99.90;;;;;;5013364;28;20196;-60
2023/12/12 07:23:09;;;;;;;0.70;0.40;;;6.60;99.90;;;;;;5012677;28;20240;-61
2023/12/12 07:25:36;;;;;;;0.57;0.57;;;6.60;99.90;;;;;;5012981;28;20217;-60
2023/12/12 07:28:03;;;;;;;0.37;0.37;;;6.60;99.90;;;;;;5012403;28;20222;-60
2023/12/12 07:30:30;;;;;;;1.10;0.70;;;6.50;99.90;;;;;;5010609;28;20201;-60
2023/12/12 07:32:59;;;;;;;0.50;0.50;;;6.50;99.90;;;;;;5004847;28;20214;-60
2023/12/12 07:35:26;;;;;;;0.87;0.77;;;6.60;99.90;;;;;;5002994;28;20269;-60
2023/12/12 07:37:53;;;;;;;0.50;0.40;;;6.50;99.90;;;;;;5004353;28;20244;-60
2023/12/12 07:40:20;;;;;;;0.40;0.40;;;6.50;99.90;;;;;;5007033;28;20199;-60
2023/12/12 07:42:47;;;;;;;3.30;0.70;;;6.50;99.90;;;;;;5002053;28;20513;-60
2023/12/12 07:45:14;;;;;;;1.80;0.60;;;6.50;99.90;;;;;;5005337;28;20846;-59
2023/12/12 07:47:41;;;;;;;0.77;0.77;;;6.40;99.90;;;;;;4999971;28;20229;-60
2023/12/12 07:50:10;;;;;;;0.93;0.57;;;6.50;99.90;;;;;;5005235;28;20208;-60
2023/12/12 07:52:37;;;;;;;1.07;0.93;;;6.50;99.90;;;;;;5008824;28;20585;-60
2023/12/12 07:55:05;;;;;;;0.63;0.60;;;6.40;99.90;;;;;;5002162;28;20201;-60
2023/12/12 07:57:32;;;;;;;1.87;0.63;;;6.40;99.90;;;;;;5003573;28;20296;-64
2023/12/12 07:59:59;;;;;;;0.80;0.77;;;6.50;99.90;;;;;;4999819;28;20246;-63
2023/12/12 08:02:27;;;;;;;1.70;1.20;;;6.50;99.90;;;;;;5001435;28;20209;-65
2023/12/12 08:04:54;;;;;;;1.47;0.87;;;6.50;99.90;;;;;;5001580;28;20212;-63
2023/12/12 08:07:22;;;;;;;3.50;2.13;;;6.50;99.90;;;;;;5001317;28;20220;-64
2023/12/12 08:09:49;;;;;;;0.87;0.50;;;6.60;99.90;;;;;;5011246;28;20213;-64
2023/12/12 08:12:17;;;;;;;0.43;0.43;;;6.60;99.90;;;;;;5005911;28;20220;-64
2023/12/12 08:14:44;;;;;;;1.97;0.57;;;6.60;99.90;;;;;;5001348;28;20276;-64
2023/12/12 08:17:11;;;;;;;2.43;0.67;;;6.70;99.90;;;;;;5004090;28;20224;-63
2023/12/12 08:19:38;;;;;;;1.13;0.90;;;6.70;99.90;;;;;;5009270;28;20301;-64
2023/12/12 08:22:05;;;;;;;2.10;0.90;;;6.80;99.90;;;;;;5007280;28;20641;-64
2023/12/12 08:24:34;;;;;;;0.70;0.50;;;6.80;99.90;;;;;;5005628;28;20612;-63
2023/12/12 08:27:01;;;;;;;0.50;0.50;;;6.80;99.90;;;;;;5009236;28;20224;-63
2023/12/12 08:29:28;;;;;;;1.00;0.60;;;6.80;99.90;;;;;;5008882;28;20361;-64
2023/12/12 08:31:55;;;;;;;2.47;1.10;;;6.80;99.90;;;;;;5007772;28;20229;-63
2023/12/12 08:34:22;;;;;;;0.87;0.40;;;6.70;99.90;;;;;;5009635;28;20201;-63
2023/12/12 08:36:49;;;;;;;0.53;0.47;;;6.70;99.90;;;;;;5009068;28;20250;-63
2023/12/12 08:39:16;;;;;;;4.77;0.60;;;6.80;99.90;;;;;;5009509;28;20263;-63
2023/12/12 08:41:48;;;;;;;0.80;0.40;;;6.80;99.90;;;;;;5007061;28;20210;-64
2023/12/12 08:44:15;;;;;;;0.57;0.50;;;6.90;99.90;;;;;;5004326;28;20690;-64
2023/12/12 08:46:46;;;;;;;1.70;0.37;;;6.80;99.90;;;;;;4996775;28;20221;-59
2023/12/12 08:49:13;;;;;;;1.33;0.40;;;6.80;99.90;;;;;;4986894;28;20366;-64
2023/12/12 08:51:40;;;;;;;3.03;0.40;;;6.90;99.90;;;;;;4989591;28;20603;-61
2023/12/12 08:54:07;;;;;;;1.33;0.20;;;6.90;99.90;;;;;;4994279;28;20213;-64
2023/12/12 08:56:36;;;;;;;2.30;0.30;;;6.90;99.90;;;;;;5010708;28;20204;-58
2023/12/12 08:59:04;;;;;;;0.43;0.43;;;6.90;99.90;;;;;;5011142;28;20229;-58
2023/12/12 09:01:31;;;;;;;1.80;0.20;;;7.00;99.90;;;;;;5005433;28;20205;-58
2023/12/12 09:03:58;;;;;;;0.20;0.20;;;7.00;99.90;;;;;;5008119;28;20204;-66
2023/12/12 09:06:25;;;;;;;3.93;0.37;;;6.90;99.90;;;;;;5004598;28;20276;-65
2023/12/12 09:08:52;;;;;;;1.43;0.40;;;6.90;99.90;;;;;;5007485;28;20216;-63
2023/12/12 09:11:19;;;;;;;0.30;0.30;;;7.00;99.90;;;;;;5006800;28;20209;-64
2023/12/12 09:13:46;;;;;;;0.30;0.30;;;7.10;99.90;;;;;;5006621;28;20256;-65
2023/12/12 09:16:15;;;;;;;0.37;0.37;;;7.10;99.90;;;;;;5010251;28;20213;-65
2023/12/12 09:18:42;;;;;;;0.50;0.40;;;7.10;99.90;;;;;;5009530;28;20220;-62
2023/12/12 09:21:09;;;;;;;0.30;0.30;;;7.10;99.90;;;;;;5006732;28;20664;-65
2023/12/12 09:23:40;;;;;;;1.17;0.53;;;7.20;99.90;;;;;;5013074;28;20200;-58
2023/12/12 09:26:12;;;;;;;1.80;0.50;;;7.20;99.90;;;;;;5014874;28;20266;-63
2023/12/12 09:28:41;;;;;;;1.57;0.60;;;7.20;99.90;;;;;;5007585;28;20221;-64
2023/12/12 09:31:07;;;;;;;2.50;0.47;;;7.30;99.90;;;;;;5013579;28;20699;-65
2023/12/12 09:33:37;;;;;;;1.73;0.60;;;7.40;99.90;;;;;;5008424;28;20265;-65
2023/12/12 09:36:04;;;;;;;0.30;0.30;;;7.40;99.90;;;;;;5012085;28;20236;-65
2023/12/12 09:38:31;;;;;;;1.20;0.30;;;7.50;99.90;;;;;;5012856;28;20833;-58
2023/12/12 09:40:59;;;;;;;3.00;0.60;;;7.40;99.90;;;;;;5003274;28;20208;-58
2023/12/12 09:43:26;;;;;;;0.63;0.40;;;7.40;99.90;;;;;;5005121;28;20852;-58
2023/12/12 09:45:58;;;;;;;0.60;0.30;;;7.30;99.90;;;;;;5012026;28;20252;-58
2023/12/12 09:48:25;;;;;;;1.37;0.60;;;7.20;99.90;;;;;;5004335;28;20221;-58
2023/12/12 09:50:56;;;;;;;0.30;0.30;;;7.20;99.90;;;;;;5003574;28;20293;-59
2023/12/12 09:53:24;;;;;;;0.50;0.37;;;7.20;99.90;;;;;;5001852;28;20212;-58
2023/12/12 09:55:53;;;;;;;0.40;0.40;;;7.20;99.90;;;;;;5010250;28;20249;-58
2023/12/12 09:58:23;;;;;;;0.37;0.30;;;7.20;99.90;;;;;;5005304;28;20252;-58
2023/12/12 10:00:51;;;;;;;0.80;0.30;;;7.20;99.90;;;;;;5009810;28;20577;-58
2023/12/12 10:03:19;;;;;;;4.80;0.50;;;7.30;99.90;;;;;;5004618;28;20280;-58
2023/12/12 10:05:54;;;;;;;2.43;0.60;;;7.30;99.90;;;;;;5013610;28;20580;-58
2023/12/12 10:08:23;;;;;;;1.10;0.33;;;7.40;99.90;;;;;;5004040;28;20757;-58
2023/12/12 10:10:53;;;;;;;2.87;0.30;;;7.40;99.90;;;;;;5012569;28;20255;-58
2023/12/12 10:13:20;;;;;;;0.73;0.37;;;7.40;99.90;;;;;;5011959;28;20323;-58
2023/12/12 10:15:47;;;;;;;0.30;0.30;;;7.50;99.90;;;;;;5014080;28;20193;-58
2023/12/12 10:18:15;;;;;;;1.40;0.30;;;7.40;99.90;;;;;;5013442;28;20303;-58
2023/12/12 10:20:42;;;;;;;2.50;0.40;;;7.50;99.90;;;;;;5012827;28;20288;-59
2023/12/12 10:23:09;;;;;;;0.93;0.40;;;7.50;99.90;;;;;;5011066;28;20208;-58
2023/12/12 10:25:37;;;;;;;0.40;0.40;;;7.50;99.90;;;;;;5010904;28;20205;-58
2023/12/12 10:28:04;;;;;;;0.27;0.20;;;7.50;99.90;;;;;;5002889;28;20233;-58
2023/12/12 10:30:31;;;;;;;0.33;0.30;;;7.50;99.90;;;;;;5012009;28;20205;-58
2023/12/12 10:32:58;;;;;;;0.20;0.20;;;7.50;99.90;;;;;;5014123;28;20201;-58
2023/12/12 10:35:28;;;;;;;0.97;0.30;;;7.50;99.90;;;;;;5013503;28;20201;-60
2023/12/12 10:37:55;;;;;;;0.97;0.77;;;7.50;99.90;;;;;;5003241;28;20236;-63
2023/12/12 10:40:23;;;;;;;0.30;0.30;;;7.50;99.90;;;;;;5008642;28;20283;-64
2023/12/12 10:42:52;;;;;;;0.43;0.40;;;7.60;99.90;;;;;;5012818;28;20226;-63
2023/12/12 10:45:20;;;;;;;0.40;0.40;;;7.70;99.90;;;;;;5007820;28;20692;-64
2023/12/12 10:47:48;;;;;;;0.73;0.30;;;7.80;99.90;;;;;;5011372;28;20347;-64
2023/12/12 10:50:16;;;;;;;1.27;0.30;;;7.80;99.90;;;;;;5009903;28;20232;-64
2023/12/12 10:52:44;;;;;;;0.37;0.37;;;7.90;99.90;;;;;;5008660;28;20251;-64
2023/12/12 10:55:13;;;;;;;0.73;0.30;;;8.00;99.90;;;;;;5011753;28;20616;-64
2023/12/12 10:57:43;;;;;;;0.40;0.40;;;8.00;99.90;;;;;;5010383;28;20224;-64
2023/12/12 11:00:14;;;;;;;0.23;0.20;;;8.10;99.90;;;;;;5007966;28;20212;-63
2023/12/12 11:02:42;;;;;;;0.40;0.30;;;8.10;99.90;;;;;;5016331;28;20628;-64
2023/12/12 11:05:11;;;;;;;0.60;0.40;;;8.10;99.90;;;;;;5011795;28;20208;-63
2023/12/12 11:07:39;;;;;;;0.30;0.30;;;8.10;99.90;;;;;;5010740;28;20311;-64
2023/12/12 11:10:09;;;;;;;0.40;0.40;;;8.10;99.90;;;;;;5012886;28;20261;-63
2023/12/12 11:12:39;;;;;;;0.57;0.30;;;8.10;99.90;;;;;;5001782;28;20288;-64
2023/12/12 11:15:09;;;;;;;0.40;0.30;;;8.10;99.90;;;;;;5011894;28;20209;-64
2023/12/12 11:17:37;;;;;;;0.30;0.30;;;8.10;99.90;;;;;;5008833;28;20197;-59
2023/12/12 11:20:12;;;;;;;1.92;0.45;;;8.20;99.90;;;;;;5007875;28;20943;-58
2023/12/12 11:22:40;;;;;;;0.20;0.20;;;8.40;99.90;;;;;;5000504;28;20210;-58
2023/12/12 11:25:08;;;;;;;0.43;0.40;;;8.40;99.90;;;;;;5001127;28;20215;-58
2023/12/12 11:27:39;;;;;;;0.93;0.10;;;8.50;99.90;;;;;;5001072;28;20303;-58
2023/12/12 11:30:07;;;;;;;0.20;0.20;;;8.50;99.90;;;;;;5001028;28;20206;-58
2023/12/12 11:32:35;;;;;;;1.20;0.10;;;8.60;99.90;;;;;;5002710;28;20201;-59
2023/12/12 11:35:07;;;;;;;1.83;0.40;;;8.60;99.90;;;;;;5013773;28;20318;-58
2023/12/12 11:37:46;;;;;;;0.50;0.30;;;8.60;99.90;;;;;;5002097;28;20866;-63
2023/12/12 11:40:13;;;;;;;0.10;0.10;;;8.60;99.90;;;;;;5000816;28;20204;-63
2023/12/12 11:42:43;;;;;;;0.30;0.20;;;8.70;99.90;;;;;;5001910;28;20202;-65
2023/12/12 11:45:10;;;;;;;1.10;0.20;;;8.60;99.90;;;;;;5002495;28;20212;-65
2023/12/12 11:47:37;;;;;;;1.20;0.10;;;8.60;99.90;;;;;;5005260;28;20284;-63
2023/12/12 11:50:34;;;;;;;1.33;0.20;;;8.70;99.90;;;;;;5002001;28;20209;-64
2023/12/12 11:53:05;;;;;;;0.20;0.20;;;8.70;99.90;;;;;;5005610;28;20264;-64
2023/12/12 11:55:35;;;;;;;0.50;0.50;;;8.80;99.90;;;;;;5001709;28;20413;-63
2023/12/12 11:58:03;;;;;;;0.53;0.53;;;8.90;99.90;;;;;;5002173;28;20264;-65
2023/12/12 12:00:35;;;;;;;1.23;0.93;;;8.90;99.90;;;;;;5001775;28;20641;-64
2023/12/12 12:03:04;;;;;;;3.20;2.40;;;9.00;99.90;;;;;;5001113;28;20248;-65
2023/12/12 12:05:31;;;;;;;0.93;0.80;;;9.10;99.90;;;;;;5009353;28;20201;-65
2023/12/12 12:08:01;;;;;;;0.93;0.60;;;9.00;99.90;;;;;;5009739;28;20241;-65
2023/12/12 12:10:28;;;;;;;1.10;1.00;;;9.10;99.90;;;;;;4997419;28;20267;-65
2023/12/12 12:12:57;;;;;;;1.13;1.03;;;9.20;99.90;;;;;;5001018;28;20343;-64
2023/12/12 12:15:24;;;;;;;1.90;1.10;;;9.20;99.90;;;;;;5002429;28;20283;-64
2023/12/12 12:17:52;;;;;;;0.87;0.70;;;9.20;99.90;;;;;;5010259;28;20772;-65
2023/12/12 12:20:19;;;;;;;2.83;1.23;;;9.10;99.90;;;;;;5006023;28;20200;-67
2023/12/12 12:22:46;;;;;;;1.07;0.90;;;9.10;99.90;;;;;;5002259;28;21703;-65
2023/12/12 12:25:22;;;;;;;1.77;1.20;;;9.10;99.90;;;;;;4999643;28;20709;-64
2023/12/12 12:27:50;;;;;;;1.83;1.20;;;9.20;99.90;;;;;;5000061;28;21005;-66
2023/12/12 12:30:18;;;;;;;1.30;1.20;;;9.20;99.90;;;;;;5000564;28;20208;-63
2023/12/12 12:33:02;;;;;;;1.07;1.07;;;9.20;99.90;;;;;;4997699;28;20205;-65
2023/12/12 12:35:29;;;;;;;1.23;1.03;;;9.30;99.90;;;;;;5002110;28;20220;-65
2023/12/12 12:37:57;;;;;;;1.70;1.10;;;9.30;99.90;;;;;;4999254;28;20267;-66
2023/12/12 12:40:38;;;;;;;1.10;0.70;;;9.40;99.90;;;;;;5000551;28;20208;-66
2023/12/12 12:43:17;;;;;;;1.80;0.77;;;9.50;99.90;;;;;;5005690;28;20988;-64
2023/12/12 12:45:45;;;;;;;1.60;0.80;;;9.60;99.90;;;;;;5001872;28;20211;-64
2023/12/12 12:48:12;;;;;;;0.43;0.43;;;9.60;99.90;;;;;;4992866;28;20649;-64
2023/12/12 12:50:40;;;;;;;0.63;0.40;;;9.60;99.90;;;;;;5000012;28;20205;-65
2023/12/12 12:53:07;;;;;;;1.97;0.30;;;9.60;99.90;;;;;;5001451;28;20209;-65
2023/12/12 12:55:35;;;;;;;0.40;0.40;;;9.50;99.90;;;;;;5003130;28;20256;-64
2023/12/12 12:58:03;;;;;;;0.33;0.33;;;9.60;99.90;;;;;;5003530;28;20213;-64
2023/12/12 13:00:30;;;;;;;1.13;0.80;;;9.60;99.90;;;;;;5001747;28;20286;-65